South Dos Palos, California
Current Conditions -  °F | °C
As of 4:53 PM on Saturday 25 Oct 2014 (Local Time) from KMCE Reporting Station
Broken Clouds Broken Clouds  
Wind Chill: 19°   Ceiling: 7000
Heat Index: 19°   Visibility: 10mi
Dew Point: 14°   Wind: 10mph
Humidity: 73%   Direction: 50°NE
Pressure: 30.07"   Gusts: NA
Location:  36.96°N, 120.65°W
Report Text: KMCE 252353Z AUTO 05009KT 10SM BKN070 19/14 A3007 RMK AO2 SLP180 60002 T01890139 10239 20172 50000
Loading
Personal Weather Stations






























Interactive Weather Map
Tropical Storm Tracking
New forecast layout! Learn more

10-Day Weather Forecast

Advertisements
Track Severe Weather on mobile